createdAt,value
2017-11-21T00:00:57.945Z,17.58
2017-11-21T00:03:25.812Z,18.35
2017-11-21T00:05:53.026Z,18.60
2017-11-21T00:08:21.126Z,20.08
2017-11-21T00:10:48.297Z,19.75
2017-11-21T00:13:18.722Z,17.73
2017-11-21T00:15:47.476Z,23.17
2017-11-21T00:18:14.207Z,17.23
2017-11-21T00:20:42.213Z,18.67
2017-11-21T00:25:41.785Z,18.30
2017-11-21T00:28:08.839Z,16.60
2017-11-21T00:30:36.504Z,15.52
2017-11-21T00:33:03.243Z,15.95
2017-11-21T00:35:29.957Z,14.70
2017-11-21T00:37:56.648Z,46.33
2017-11-21T00:40:23.373Z,17.37
2017-11-21T00:42:54.740Z,17.15
2017-11-21T00:45:21.565Z,17.67
2017-11-21T00:47:49.190Z,17.37
2017-11-21T00:50:18.255Z,19.58
2017-11-21T00:52:47.283Z,18.67
2017-11-21T00:55:15.127Z,21.70
2017-11-21T00:57:43.979Z,17.33
2017-11-21T01:02:43.763Z,20.37
2017-11-21T01:05:11.339Z,18.73
2017-11-21T01:07:38.912Z,21.50
2017-11-21T01:10:05.632Z,20.90
2017-11-21T01:12:32.318Z,20.67
2017-11-21T01:15:02.318Z,23.83
2017-11-21T01:17:34.396Z,22.75
2017-11-21T01:20:02.193Z,23.90
2017-11-21T01:22:28.884Z,28.00
2017-11-21T01:24:56.515Z,25.23
2017-11-21T01:27:28.260Z,26.90
2017-11-21T01:29:56.199Z,30.30
2017-11-21T01:32:22.997Z,29.12
2017-11-21T01:34:52.137Z,28.73
2017-11-21T01:37:20.902Z,28.83
2017-11-21T01:39:47.633Z,29.10
2017-11-21T01:42:15.289Z,27.40
2017-11-21T01:44:43.896Z,26.33
2017-11-21T01:47:10.613Z,25.52
2017-11-21T01:49:40.073Z,26.92
2017-11-21T01:52:06.776Z,26.98
2017-11-21T01:54:34.680Z,29.42
2017-11-21T01:57:03.036Z,26.67
2017-11-21T01:59:30.688Z,24.73
2017-11-21T02:01:58.668Z,25.83
2017-11-21T02:04:28.485Z,23.50
2017-11-21T02:06:55.580Z,23.95
2017-11-21T02:09:23.462Z,26.60
2017-11-21T02:11:52.108Z,24.58
2017-11-21T02:14:21.997Z,29.05
2017-11-21T02:16:49.655Z,26.55
2017-11-21T02:19:17.116Z,25.23
2017-11-21T02:21:43.895Z,25.90
2017-11-21T02:24:12.389Z,22.75
2017-11-21T02:26:39.079Z,22.83
2017-11-21T02:29:06.641Z,28.87
2017-11-21T02:31:33.781Z,24.73
2017-11-21T02:36:34.738Z,24.52
2017-11-21T02:39:02.518Z,29.33
2017-11-21T02:41:29.585Z,28.35
2017-11-21T02:43:58.898Z,27.55
2017-11-21T02:46:29.049Z,26.10
2017-11-21T02:48:56.577Z,23.75
2017-11-21T02:51:25.181Z,23.80
2017-11-21T02:53:52.005Z,26.65
2017-11-21T02:56:19.108Z,24.25
2017-11-21T02:58:46.161Z,25.62
2017-11-21T03:01:14.061Z,27.20
2017-11-21T03:03:41.722Z,29.35
2017-11-21T03:06:08.413Z,30.50
2017-11-21T03:08:35.199Z,28.65
2017-11-21T03:11:02.361Z,29.90
2017-11-21T03:13:29.083Z,24.40
2017-11-21T03:15:56.612Z,27.45
2017-11-21T03:18:26.509Z,30.65
2017-11-21T03:21:01.073Z,25.50
2017-11-21T03:23:34.324Z,33.15
2017-11-21T03:26:06.806Z,27.85
2017-11-21T03:28:39.411Z,26.33
2017-11-21T03:31:07.920Z,24.87
2017-11-21T03:33:35.933Z,23.98
2017-11-21T03:36:04.308Z,27.13
2017-11-21T03:38:32.685Z,23.65
2017-11-21T03:40:59.799Z,24.23
2017-11-21T03:43:26.850Z,27.62
2017-11-21T03:48:32.062Z,25.48
2017-11-21T03:50:59.948Z,26.02
2017-11-21T03:53:27.649Z,25.88
2017-11-21T03:55:56.847Z,22.92
2017-11-21T03:58:24.476Z,20.73
2017-11-21T04:00:54.336Z,23.85
2017-11-21T04:03:21.041Z,22.90
2017-11-21T04:05:48.296Z,20.40
2017-11-21T04:08:16.407Z,18.37
2017-11-21T04:10:44.872Z,19.98
2017-11-21T04:13:11.940Z,18.65
2017-11-21T04:15:39.745Z,20.12
2017-11-21T04:20:38.325Z,24.12
2017-11-21T04:23:06.907Z,22.95
2017-11-21T04:25:34.385Z,21.75
2017-11-21T04:28:03.119Z,28.25
2017-11-21T04:30:30.901Z,26.52
2017-11-21T04:32:57.613Z,22.60
2017-11-21T04:35:24.333Z,27.33
2017-11-21T04:37:51.447Z,28.60
2017-11-21T04:40:18.433Z,28.75
2017-11-21T04:42:45.960Z,34.78
2017-11-21T04:45:13.697Z,23.02
2017-11-21T04:47:40.992Z,24.48
2017-11-21T04:50:12.878Z,24.70
2017-11-21T04:52:39.807Z,19.52
2017-11-21T04:55:07.241Z,20.25
2017-11-21T04:57:34.635Z,26.10
2017-11-21T05:00:04.132Z,28.55
2017-11-21T05:02:30.825Z,20.73
2017-11-21T05:04:58.736Z,21.52
2017-11-21T05:07:25.681Z,21.27
2017-11-21T05:09:53.315Z,22.65
2017-11-21T05:12:24.517Z,32.53
2017-11-21T05:14:51.985Z,26.77
2017-11-21T05:17:20.266Z,27.33
2017-11-21T05:19:51.161Z,30.48
2017-11-21T05:22:19.405Z,31.37
2017-11-21T05:24:48.358Z,36.00
2017-11-21T05:27:15.976Z,37.78
2017-11-21T05:29:44.028Z,37.88
2017-11-21T05:32:14.628Z,31.27
2017-11-21T05:34:44.175Z,33.85
2017-11-21T05:37:12.788Z,38.65
2017-11-21T05:39:40.804Z,32.80
2017-11-21T05:42:09.196Z,34.40
2017-11-21T05:44:37.504Z,35.58
2017-11-21T05:47:05.310Z,37.33
2017-11-21T05:49:32.837Z,41.20
2017-11-21T05:52:00.986Z,36.58
2017-11-21T05:54:28.315Z,31.52
2017-11-21T05:56:55.997Z,31.05
2017-11-21T05:59:24.203Z,39.42
2017-11-21T06:01:54.193Z,48.17
2017-11-21T06:04:21.176Z,29.90
2017-11-21T06:06:47.868Z,31.20
2017-11-21T06:09:14.567Z,35.70
2017-11-21T06:11:41.996Z,33.35
2017-11-21T06:14:08.689Z,38.65
2017-11-21T06:16:35.377Z,39.15
2017-11-21T06:19:03.091Z,36.28
2017-11-21T06:21:30.954Z,37.63
2017-11-21T06:23:57.647Z,42.88
2017-11-21T06:26:25.187Z,39.00
2017-11-21T06:28:51.877Z,41.13
2017-11-21T06:31:18.909Z,36.15
2017-11-21T06:33:45.627Z,39.55
2017-11-21T06:36:12.308Z,43.25
2017-11-21T06:38:38.993Z,37.95
2017-11-21T06:41:05.940Z,44.30
2017-11-21T06:43:32.629Z,51.58
2017-11-21T06:45:59.572Z,37.67
2017-11-21T06:48:26.293Z,35.63
2017-11-21T06:50:52.982Z,38.13
2017-11-21T06:53:19.668Z,46.80
2017-11-21T06:55:46.388Z,37.95
2017-11-21T06:58:13.072Z,55.33
2017-11-21T07:00:40.175Z,46.15
2017-11-21T07:03:06.888Z,47.42
2017-11-21T07:05:33.573Z,40.70
2017-11-21T07:08:00.265Z,47.13
2017-11-21T07:10:26.982Z,44.67
2017-11-21T07:12:53.664Z,40.35
2017-11-21T07:15:20.358Z,41.37
2017-11-21T07:17:47.080Z,41.80
2017-11-21T07:20:13.764Z,45.70
2017-11-21T07:22:40.460Z,42.65
2017-11-21T07:25:07.500Z,48.85
2017-11-21T07:27:34.188Z,43.35
2017-11-21T07:30:00.879Z,46.65
2017-11-21T07:32:27.601Z,49.35
2017-11-21T07:34:54.301Z,52.47
2017-11-21T07:37:21.705Z,40.65
2017-11-21T07:39:48.415Z,38.45
2017-11-21T07:42:15.096Z,35.80
2017-11-21T07:44:41.789Z,46.40
2017-11-21T07:47:08.512Z,36.60
2017-11-21T07:49:35.209Z,33.22
2017-11-21T07:52:01.910Z,35.90
2017-11-21T07:54:28.616Z,29.85
2017-11-21T07:56:55.300Z,31.90
2017-11-21T07:59:21.995Z,34.85
2017-11-21T08:01:48.711Z,29.87
2017-11-21T08:04:15.401Z,27.27
2017-11-21T08:06:42.095Z,30.70
2017-11-21T08:09:08.813Z,31.62
2017-11-21T08:11:35.500Z,30.35
2017-11-21T08:14:02.189Z,20.30
2017-11-21T08:16:28.954Z,25.30
2017-11-21T08:18:56.356Z,21.00
2017-11-21T08:21:23.306Z,24.10
2017-11-21T08:23:50.030Z,19.77
2017-11-21T08:26:16.751Z,18.95
2017-11-21T08:28:43.453Z,22.58
2017-11-21T08:31:10.471Z,16.15
2017-11-21T08:33:37.849Z,10.02
2017-11-21T08:36:04.562Z,12.63
2017-11-21T08:38:31.498Z,12.30
2017-11-21T08:40:58.208Z,13.60
2017-11-21T08:43:24.892Z,11.70
2017-11-21T08:45:51.617Z,10.88
2017-11-21T08:48:18.301Z,10.27
2017-11-21T08:50:45.024Z,9.27
2017-11-21T08:53:11.715Z,9.30
2017-11-21T08:55:38.425Z,10.38
2017-11-21T08:58:05.113Z,11.80
2017-11-21T09:00:31.813Z,12.15
2017-11-21T09:02:59.295Z,14.45
2017-11-21T09:05:26.339Z,16.17
2017-11-21T09:07:53.056Z,18.98
2017-11-21T09:10:19.753Z,21.27
2017-11-21T09:12:46.461Z,25.17
2017-11-21T09:15:13.152Z,22.70
2017-11-21T09:17:40.132Z,24.12
2017-11-21T09:20:06.816Z,26.30
2017-11-21T09:22:33.500Z,27.17
2017-11-21T09:25:00.464Z,27.77
2017-11-21T09:27:27.145Z,30.75
2017-11-21T09:29:53.829Z,33.15
2017-11-21T09:32:20.776Z,31.75
2017-11-21T09:34:47.467Z,30.70
2017-11-21T09:37:14.392Z,28.92
2017-11-21T09:39:41.101Z,33.05
2017-11-21T09:42:07.792Z,27.85
2017-11-21T09:44:34.480Z,31.85
2017-11-21T09:47:01.193Z,30.95
2017-11-21T09:49:27.892Z,31.08
2017-11-21T09:51:54.597Z,29.85
2017-11-21T09:54:21.711Z,28.35
2017-11-21T09:56:48.717Z,29.00
2017-11-21T09:59:15.418Z,26.77
2017-11-21T10:01:42.372Z,27.83
2017-11-21T10:04:09.070Z,28.40
2017-11-21T10:06:36.080Z,25.37
2017-11-21T10:09:03.125Z,22.10
2017-11-21T10:11:29.812Z,24.17
2017-11-21T10:13:56.500Z,23.98
2017-11-21T10:16:23.276Z,25.70
2017-11-21T10:18:49.968Z,26.27
2017-11-21T10:21:16.655Z,24.12
2017-11-21T10:23:43.380Z,24.75
2017-11-21T10:26:10.071Z,25.33
2017-11-21T10:28:36.764Z,23.70
2017-11-21T10:31:03.496Z,25.33
2017-11-21T10:33:30.452Z,21.23
2017-11-21T10:35:57.384Z,27.95
2017-11-21T10:38:24.349Z,20.90
2017-11-21T10:40:51.315Z,20.92
2017-11-21T10:43:18.001Z,21.80
2017-11-21T10:45:44.949Z,22.02
2017-11-21T10:48:11.639Z,22.10
2017-11-21T10:50:38.336Z,20.58
2017-11-21T10:53:05.045Z,22.73
2017-11-21T10:55:31.739Z,24.63
2017-11-21T10:57:59.100Z,24.65
2017-11-21T11:00:26.341Z,23.33
2017-11-21T11:02:53.267Z,26.60
2017-11-21T11:05:20.273Z,22.52
2017-11-21T11:07:48.092Z,18.27
2017-11-21T11:10:16.427Z,19.02
2017-11-21T11:12:43.424Z,22.13
2017-11-21T11:17:47.560Z,14.60
2017-11-21T11:20:18.703Z,13.77
2017-11-21T11:22:45.421Z,13.60
2017-11-21T11:25:12.501Z,10.32
2017-11-21T11:27:41.383Z,10.38
2017-11-21T11:30:09.641Z,11.20
2017-11-21T11:32:37.136Z,8.82
2017-11-21T11:35:04.226Z,7.68
2017-11-21T11:37:33.328Z,7.30
2017-11-21T11:40:01.089Z,5.87
2017-11-21T11:42:27.828Z,5.55
2017-11-21T11:44:55.239Z,4.87
2017-11-21T11:47:22.169Z,4.22
2017-11-21T11:49:48.881Z,5.45
2017-11-21T11:52:15.571Z,4.20
2017-11-21T11:54:43.390Z,5.50
2017-11-21T11:57:10.935Z,4.45
2017-11-21T11:59:38.182Z,4.95
2017-11-21T12:02:05.220Z,4.55
2017-11-21T12:04:33.941Z,5.03
2017-11-21T12:07:03.392Z,4.87
2017-11-21T12:12:02.829Z,3.90
2017-11-21T12:14:29.508Z,3.22
2017-11-21T12:16:56.192Z,3.00
2017-11-21T12:19:24.489Z,2.97
2017-11-21T12:24:22.904Z,2.90
2017-11-21T12:26:49.636Z,2.50
2017-11-21T12:29:18.905Z,2.97
2017-11-21T12:31:46.289Z,3.15
2017-11-21T12:34:13.444Z,4.10
2017-11-21T12:36:41.465Z,3.75
2017-11-21T12:39:12.916Z,3.80
2017-11-21T12:41:41.334Z,4.60
2017-11-21T12:44:08.018Z,5.70
2017-11-21T12:46:36.213Z,6.03
2017-11-21T12:49:05.240Z,6.40
2017-11-21T12:51:32.315Z,6.32
2017-11-21T12:53:59.783Z,6.43
2017-11-21T12:56:27.861Z,6.90
2017-11-21T12:58:55.681Z,7.82
2017-11-21T13:02:04.043Z,7.95
2017-11-21T13:04:33.552Z,7.60
2017-11-21T13:07:00.581Z,9.30
2017-11-21T13:09:27.537Z,10.00
2017-11-21T13:11:54.563Z,9.45
2017-11-21T13:14:21.492Z,10.02
2017-11-21T13:16:48.529Z,10.82
2017-11-21T13:19:16.887Z,10.65
2017-11-21T13:21:43.588Z,11.55
2017-11-21T13:24:12.035Z,11.52
2017-11-21T13:26:38.962Z,12.00
2017-11-21T13:29:05.880Z,10.77
2017-11-21T13:31:32.979Z,11.82
2017-11-21T13:34:00.029Z,11.50
2017-11-21T13:36:26.721Z,10.88
2017-11-21T13:38:53.448Z,12.65
2017-11-21T13:41:20.826Z,12.23
2017-11-21T13:43:47.521Z,13.23
2017-11-21T13:46:14.747Z,13.30
2017-11-21T13:48:41.434Z,12.45
2017-11-21T13:51:08.361Z,12.73
2017-11-21T13:53:35.081Z,12.05
2017-11-21T13:56:01.779Z,12.90
2017-11-21T13:58:28.705Z,13.77
2017-11-21T14:00:55.808Z,13.27
2017-11-21T14:03:22.501Z,15.20
2017-11-21T14:05:49.871Z,14.13
2017-11-21T14:08:16.587Z,15.23
2017-11-21T14:10:43.556Z,14.43
2017-11-21T14:13:10.260Z,15.05
2017-11-21T14:15:36.982Z,16.92
2017-11-21T14:18:03.933Z,17.25
2017-11-21T14:20:30.625Z,16.20
2017-11-21T14:22:57.339Z,15.35
2017-11-21T14:25:24.029Z,15.23
2017-11-21T14:27:50.721Z,15.07
2017-11-21T14:30:17.681Z,16.73
2017-11-21T14:32:44.390Z,17.35
2017-11-21T14:35:11.096Z,18.20
2017-11-21T14:37:37.879Z,16.05
2017-11-21T14:40:04.892Z,19.42
2017-11-21T14:42:31.822Z,18.73
2017-11-21T14:44:58.904Z,17.95
2017-11-21T14:47:25.949Z,18.98
2017-11-21T14:49:53.714Z,18.10
2017-11-21T14:52:20.773Z,19.58
2017-11-21T14:54:47.696Z,20.50
2017-11-21T14:57:14.387Z,20.05
2017-11-21T14:59:41.097Z,18.08
2017-11-21T15:02:07.786Z,18.95
2017-11-21T15:04:34.804Z,19.52
2017-11-21T15:07:01.519Z,18.58
2017-11-21T15:09:28.205Z,19.90
2017-11-21T15:11:54.897Z,18.75
2017-11-21T15:14:21.864Z,17.73
2017-11-21T15:16:48.569Z,18.17
2017-11-21T15:19:15.252Z,17.65
2017-11-21T15:21:41.969Z,16.30
2017-11-21T15:24:08.662Z,18.30
2017-11-21T15:26:35.358Z,18.15
2017-11-21T15:29:02.082Z,15.32
2017-11-21T15:31:28.775Z,18.27
2017-11-21T15:33:55.864Z,17.85
2017-11-21T15:36:22.898Z,17.25
2017-11-21T15:38:49.585Z,18.05
2017-11-21T15:41:16.268Z,17.48
2017-11-21T15:43:42.985Z,19.37
2017-11-21T15:46:09.682Z,18.50
2017-11-21T15:48:36.393Z,20.52
2017-11-21T15:51:03.120Z,19.05
2017-11-21T15:53:29.821Z,20.80
2017-11-21T15:55:56.509Z,19.48
2017-11-21T15:58:23.469Z,19.08
2017-11-21T16:00:50.164Z,18.58
2017-11-21T16:03:16.857Z,19.40
2017-11-21T16:05:43.820Z,18.58
2017-11-21T16:08:10.936Z,20.48
2017-11-21T16:10:37.632Z,21.35
2017-11-21T16:13:04.345Z,21.67
2017-11-21T16:15:31.036Z,34.00
2017-11-21T16:17:57.717Z,22.75
2017-11-21T16:20:24.430Z,24.23
2017-11-21T16:22:51.120Z,24.12
2017-11-21T16:25:17.816Z,27.42
2017-11-21T16:27:44.532Z,26.10
2017-11-21T16:30:11.231Z,26.85
2017-11-21T16:32:37.927Z,26.85
2017-11-21T16:35:04.641Z,28.38
2017-11-21T16:37:31.631Z,27.83
2017-11-21T16:39:58.315Z,29.35
2017-11-21T16:42:25.032Z,30.20
2017-11-21T16:44:51.712Z,29.70
2017-11-21T16:47:18.402Z,30.35
2017-11-21T16:49:45.141Z,34.53
2017-11-21T16:52:11.841Z,33.53
2017-11-21T16:54:38.529Z,30.67
2017-11-21T16:57:05.250Z,34.67
2017-11-21T16:59:32.288Z,34.08
2017-11-21T17:01:58.976Z,33.47
2017-11-21T17:04:25.701Z,33.55
2017-11-21T17:06:52.388Z,34.92
2017-11-21T17:09:19.072Z,34.47
2017-11-21T17:11:45.788Z,37.58
2017-11-21T17:14:12.476Z,36.20
2017-11-21T17:16:39.165Z,32.20
2017-11-21T17:19:05.876Z,34.60
2017-11-21T17:21:32.826Z,35.67
2017-11-21T17:23:59.508Z,32.20
2017-11-21T17:26:26.221Z,35.97
2017-11-21T17:28:52.908Z,32.75
2017-11-21T17:31:21.224Z,36.45
2017-11-21T17:33:47.940Z,37.40
2017-11-21T17:36:14.628Z,33.08
2017-11-21T17:38:41.360Z,32.72
2017-11-21T17:41:21.248Z,33.30
2017-11-21T17:43:47.976Z,39.85
2017-11-21T17:46:16.105Z,34.15
2017-11-21T17:48:42.872Z,33.90
2017-11-21T17:51:10.484Z,32.17
2017-11-21T17:56:33.003Z,29.63
2017-11-21T17:59:02.416Z,28.50
2017-11-21T18:01:32.706Z,28.70
2017-11-21T18:03:59.452Z,31.00
2017-11-21T18:06:27.229Z,32.30
2017-11-21T18:08:54.189Z,34.10
2017-11-21T18:11:20.937Z,28.70
2017-11-21T18:13:49.531Z,30.20
2017-11-21T18:16:17.263Z,30.90
2017-11-21T18:18:45.068Z,33.28
2017-11-21T18:21:12.341Z,36.47
2017-11-21T18:23:39.043Z,30.27
2017-11-21T18:26:06.154Z,34.22
2017-11-21T18:28:32.854Z,31.58
2017-11-21T18:30:59.550Z,29.30
2017-11-21T18:33:26.976Z,29.65
2017-11-21T18:35:57.368Z,33.67
2017-11-21T18:38:25.056Z,31.70
2017-11-21T18:40:51.836Z,31.87
2017-11-21T18:43:18.519Z,29.52
2017-11-21T18:45:45.205Z,29.20
2017-11-21T18:48:11.925Z,28.30
2017-11-21T18:50:38.639Z,31.10
2017-11-21T18:53:05.325Z,31.02
2017-11-21T18:55:32.092Z,28.30
2017-11-21T18:57:58.908Z,29.67
2017-11-21T19:00:25.665Z,27.23
2017-11-21T19:03:00.154Z,28.73
2017-11-21T19:11:19.236Z,27.10
2017-11-21T19:13:53.303Z,23.77
2017-11-21T19:16:20.063Z,25.17
2017-11-21T19:21:20.997Z,24.92
2017-11-21T19:23:48.563Z,26.83
2017-11-21T19:26:15.859Z,24.77
2017-11-21T19:28:42.602Z,25.33
2017-11-21T19:31:11.374Z,23.27
2017-11-21T19:33:38.103Z,25.25
2017-11-21T19:36:05.424Z,23.10
2017-11-21T19:38:32.279Z,22.30
2017-11-21T19:40:59.032Z,22.77
2017-11-21T19:43:25.958Z,23.12
2017-11-21T19:45:52.682Z,24.25
2017-11-21T19:48:19.401Z,22.25
2017-11-21T19:50:47.797Z,22.27
2017-11-21T19:53:15.399Z,20.67
2017-11-21T19:55:42.116Z,21.23
2017-11-21T19:58:08.832Z,19.98
2017-11-21T20:00:35.563Z,21.87
2017-11-21T20:03:02.482Z,19.20
2017-11-21T20:05:29.160Z,20.60
2017-11-21T20:07:55.872Z,20.00
2017-11-21T20:10:22.565Z,19.65
2017-11-21T20:12:49.248Z,17.73
2017-11-21T20:15:15.956Z,20.33
2017-11-21T20:17:42.641Z,18.52
2017-11-21T20:20:10.213Z,18.42
2017-11-21T20:22:36.901Z,18.65
2017-11-21T20:25:03.597Z,18.33
2017-11-21T20:27:30.324Z,21.12
2017-11-21T20:29:57.022Z,22.95
2017-11-21T20:32:23.716Z,16.60
2017-11-21T20:34:51.825Z,19.23
2017-11-21T20:37:19.200Z,17.05
2017-11-21T20:39:45.897Z,21.33
2017-11-21T20:42:12.603Z,19.25
2017-11-21T20:44:43.828Z,19.65
2017-11-21T20:47:10.536Z,18.15
2017-11-21T20:49:37.255Z,18.58
2017-11-21T20:52:03.953Z,19.48
2017-11-21T20:54:30.648Z,20.73
2017-11-21T20:56:58.380Z,21.00
2017-11-21T20:59:25.077Z,23.55
2017-11-21T21:01:51.776Z,20.23
2017-11-21T21:04:18.496Z,20.05
2017-11-21T21:06:45.198Z,24.85
2017-11-21T21:09:13.810Z,19.83
2017-11-21T21:11:40.568Z,20.58
2017-11-21T21:14:07.257Z,25.88
2017-11-21T21:16:33.968Z,18.98
2017-11-21T21:19:00.952Z,20.08
2017-11-21T21:21:28.126Z,22.33
2017-11-21T21:23:56.293Z,19.92
2017-11-21T21:26:24.760Z,18.67
2017-11-21T21:28:51.490Z,19.40
2017-11-21T21:31:18.176Z,21.15
2017-11-21T21:33:45.758Z,19.02
2017-11-21T21:36:12.722Z,23.00
2017-11-21T21:38:39.426Z,19.75
2017-11-21T21:41:06.372Z,18.20
2017-11-21T21:43:33.073Z,18.25
2017-11-21T21:46:00.700Z,20.17
2017-11-21T21:48:27.400Z,21.12
2017-11-21T21:50:54.104Z,20.23
2017-11-21T21:53:20.810Z,15.85
2017-11-21T21:55:47.496Z,18.20
2017-11-21T21:58:14.220Z,16.50
2017-11-21T22:00:40.913Z,16.30
2017-11-21T22:03:07.633Z,17.23
2017-11-21T22:05:36.169Z,15.75
2017-11-21T22:08:02.894Z,15.57
2017-11-21T22:10:30.452Z,18.70
2017-11-21T22:12:57.161Z,19.25
2017-11-21T22:15:23.851Z,15.38
2017-11-21T22:17:50.570Z,14.07
2017-11-21T22:20:17.268Z,15.02
2017-11-21T22:22:44.000Z,16.50
2017-11-21T22:25:10.684Z,16.10
2017-11-21T22:27:37.404Z,13.38
2017-11-21T22:30:04.099Z,17.33
2017-11-21T22:32:30.813Z,17.62
2017-11-21T22:34:57.507Z,14.32
2017-11-21T22:37:24.239Z,14.30
2017-11-21T22:39:50.936Z,15.35
2017-11-21T22:42:17.640Z,16.02
2017-11-21T22:44:44.354Z,17.25
2017-11-21T22:47:11.053Z,18.98
2017-11-21T22:49:37.753Z,16.48
2017-11-21T22:52:05.404Z,16.70
2017-11-21T22:54:32.095Z,15.48
2017-11-21T22:56:58.796Z,13.85
2017-11-21T22:59:25.783Z,14.02
2017-11-21T23:01:53.075Z,13.50
2017-11-21T23:04:19.777Z,13.75
2017-11-21T23:06:46.492Z,15.68
2017-11-21T23:09:14.992Z,13.68
2017-11-21T23:11:42.129Z,15.23
2017-11-21T23:14:09.210Z,13.35
2017-11-21T23:16:35.904Z,13.43
2017-11-21T23:19:02.592Z,13.38
2017-11-21T23:21:29.302Z,14.87
2017-11-21T23:23:56.017Z,18.25
2017-11-21T23:26:22.704Z,13.60
2017-11-21T23:28:49.416Z,18.73
2017-11-21T23:31:16.116Z,15.15
2017-11-21T23:33:42.819Z,12.73
2017-11-21T23:36:09.509Z,13.35
2017-11-21T23:38:37.124Z,13.38
2017-11-21T23:41:04.934Z,14.15
2017-11-21T23:43:33.917Z,13.15
2017-11-21T23:46:00.939Z,13.10
2017-11-21T23:48:28.657Z,12.77
2017-11-21T23:50:56.398Z,13.18
2017-11-21T23:53:23.622Z,13.95
2017-11-21T23:55:50.337Z,12.65
2017-11-21T23:58:17.043Z,11.55
